Time;durP1;ratioP1;P1;durP2;ratioP2;P2;SDS_P1;SDS_P2;PMS_P1;PMS_P2;Temp;Humidity;BMP_temperature;BMP_pressure;BME280_temperature;BME280_humidity;BME280_pressure;Samples;Min_cycle;Max_cycle;Signal;HPM_P1;HPM_P2
2022/08/10 00:00:21;;;;;;;5.20;1.63;;;17.30;99.90;;;;;;5071043;28;20490;-68
2022/08/10 00:02:55;;;;;;;5.18;1.70;;;17.20;99.90;;;;;;5089089;28;20394;-67
2022/08/10 00:05:22;;;;;;;3.60;1.52;;;17.20;99.90;;;;;;5089716;28;20452;-67
2022/08/10 00:07:48;;;;;;;3.05;1.55;;;17.30;99.90;;;;;;5089101;28;20062;-67
2022/08/10 00:10:16;;;;;;;3.35;1.77;;;17.30;99.90;;;;;;5072116;28;20486;-68
2022/08/10 00:12:42;;;;;;;4.05;2.20;;;17.20;99.90;;;;;;5089477;28;20047;-68
2022/08/10 00:15:09;;;;;;;4.10;2.60;;;17.20;99.90;;;;;;5090773;28;20035;-67
2022/08/10 00:17:35;;;;;;;5.07;2.25;;;17.10;99.90;;;;;;5088528;28;20100;-67
2022/08/10 00:20:02;;;;;;;4.95;2.50;;;17.10;99.90;;;;;;5088792;28;20036;-67
2022/08/10 00:22:28;;;;;;;4.63;2.63;;;17.10;99.90;;;;;;5058219;28;20076;-68
2022/08/10 00:24:56;;;;;;;7.22;3.28;;;17.00;99.90;;;;;;5071728;28;20047;-67
2022/08/10 00:27:26;;;;;;;4.40;2.72;;;17.00;99.90;;;;;;5072129;28;20527;-68
2022/08/10 00:29:52;;;;;;;4.35;2.45;;;17.00;99.90;;;;;;5071857;28;20453;-68
2022/08/10 00:32:18;;;;;;;6.53;3.67;;;16.90;99.90;;;;;;5089449;28;20043;-69
2022/08/10 00:34:44;;;;;;;4.78;3.15;;;16.90;99.90;;;;;;5063333;28;20508;-68
2022/08/10 00:37:12;;;;;;;5.55;3.05;;;16.90;99.90;;;;;;5088570;28;20065;-68
2022/08/10 00:39:37;;;;;;;7.40;3.45;;;16.80;99.90;;;;;;5059280;28;20111;-68
2022/08/10 00:42:08;;;;;;;5.35;3.40;;;16.90;99.90;;;;;;5073506;28;20047;-68
2022/08/10 00:44:47;;;;;;;5.72;3.60;;;16.80;99.90;;;;;;5088293;28;20044;-68
2022/08/10 00:47:13;;;;;;;5.13;3.63;;;16.70;99.90;;;;;;5088080;28;20532;-67
2022/08/10 00:49:39;;;;;;;5.63;3.85;;;16.70;99.90;;;;;;5087337;28;20286;-68
2022/08/10 00:52:06;;;;;;;7.82;4.10;;;16.70;99.90;;;;;;5089067;28;20036;-68
2022/08/10 00:54:34;;;;;;;6.28;3.55;;;16.70;99.90;;;;;;5071612;28;20071;-68
2022/08/10 00:57:00;;;;;;;6.80;3.47;;;16.60;99.90;;;;;;5089218;28;20478;-68
2022/08/10 00:59:27;;;;;;;7.07;3.85;;;16.70;99.90;;;;;;5087836;28;20092;-67
2022/08/10 01:01:53;;;;;;;5.38;3.60;;;16.60;99.90;;;;;;5072477;28;20050;-68
2022/08/10 01:04:18;;;;;;;5.63;3.80;;;16.60;99.90;;;;;;5087994;28;20680;-68
2022/08/10 01:07:06;;;;;;;5.22;3.45;;;16.60;99.90;;;;;;5072132;28;20659;-68
2022/08/10 01:09:55;;;;;;;6.85;4.20;;;16.60;99.90;;;;;;5061217;28;20389;-68
2022/08/10 01:12:24;;;;;;;6.10;3.95;;;16.40;99.90;;;;;;5071540;28;20051;-68
2022/08/10 01:15:16;;;;;;;6.15;3.92;;;16.50;99.90;;;;;;5088716;28;21024;-68
2022/08/10 01:18:08;;;;;;;5.93;4.55;;;16.40;99.90;;;;;;5076060;28;20387;-67
2022/08/10 01:20:39;;;;;;;8.73;4.43;;;16.50;99.90;;;;;;5087821;28;20066;-68
2022/08/10 01:23:11;;;;;;;9.00;4.57;;;16.50;99.90;;;;;;5087982;28;20375;-68
2022/08/10 01:26:11;;;;;;;7.10;4.88;;;16.50;99.90;;;;;;5071837;28;20626;-69
2022/08/10 01:29:07;;;;;;;9.88;5.30;;;16.40;99.90;;;;;;5070780;28;20047;-68
2022/08/10 01:31:40;;;;;;;10.60;6.30;;;16.30;99.90;;;;;;5088729;28;20154;-68
2022/08/10 01:34:22;;;;;;;7.95;6.35;;;16.30;99.90;;;;;;5088980;28;20411;-68
2022/08/10 01:36:52;;;;;;;8.40;6.82;;;16.30;99.90;;;;;;5063521;28;20299;-68
2022/08/10 01:39:27;;;;;;;9.35;6.93;;;16.30;99.90;;;;;;5088722;28;20395;-68
2022/08/10 01:41:59;;;;;;;10.00;5.90;;;16.30;99.90;;;;;;5073071;28;20040;-68
2022/08/10 01:44:34;;;;;;;10.13;6.10;;;16.20;99.90;;;;;;5065532;28;20051;-67
2022/08/10 01:50:01;;;;;;;9.32;6.43;;;16.20;99.90;;;;;;5109341;27;20059;-68
2022/08/10 01:52:29;;;;;;;10.10;6.85;;;16.30;99.90;;;;;;5073725;28;20078;-68
2022/08/10 01:54:57;;;;;;;8.50;6.63;;;16.20;99.90;;;;;;5092240;28;20181;-68
2022/08/10 01:57:25;;;;;;;11.50;6.70;;;16.10;99.90;;;;;;5108298;27;20036;-68
2022/08/10 01:59:53;;;;;;;7.38;5.88;;;16.20;99.90;;;;;;5091977;28;20051;-68
2022/08/10 02:02:20;;;;;;;11.10;6.68;;;16.20;99.90;;;;;;5091131;28;20047;-68
2022/08/10 02:04:47;;;;;;;9.43;6.45;;;16.20;99.90;;;;;;5090677;28;20051;-68
2022/08/10 02:07:21;;;;;;;9.80;7.00;;;16.20;99.90;;;;;;5078624;28;20360;-68
2022/08/10 02:09:48;;;;;;;;;;;16.20;99.90;;;;;;5092710;28;20036;-68
2022/08/10 02:12:19;;;;;;;9.20;7.57;;;16.20;99.90;;;;;;5091556;28;20586;-69
2022/08/10 02:14:50;;;;;;;12.75;8.32;;;16.10;99.90;;;;;;5065328;28;20122;-68
2022/08/10 02:17:20;;;;;;;12.70;9.00;;;16.10;99.90;;;;;;5074017;28;20051;-67
2022/08/10 02:19:47;;;;;;;13.05;8.32;;;16.10;99.90;;;;;;5091059;28;20550;-68
2022/08/10 02:22:15;;;;;;;12.75;9.40;;;16.10;99.90;;;;;;5091488;28;20122;-67
2022/08/10 02:24:43;;;;;;;12.25;8.77;;;16.00;99.90;;;;;;5091452;28;20099;-67
2022/08/10 02:27:11;;;;;;;12.05;9.32;;;16.00;99.90;;;;;;5091435;28;20611;-67
2022/08/10 02:29:38;;;;;;;11.25;8.20;;;16.00;99.90;;;;;;5091223;28;20601;-67
2022/08/10 02:32:06;;;;;;;13.27;8.63;;;16.00;99.90;;;;;;5091422;28;20108;-68
2022/08/10 02:34:35;;;;;;;11.55;8.32;;;16.00;99.90;;;;;;5085289;28;20620;-68
2022/08/10 02:37:03;;;;;;;12.30;8.30;;;15.90;99.90;;;;;;5092122;28;20096;-68
2022/08/10 02:39:30;;;;;;;12.52;8.23;;;16.00;99.90;;;;;;5090570;28;20416;-68
2022/08/10 02:42:24;;;;;;;12.25;9.15;;;16.00;99.90;;;;;;5091636;28;20203;-68
2022/08/10 02:45:14;;;;;;;11.48;9.13;;;16.00;99.90;;;;;;5065853;27;20047;-68
2022/08/10 02:47:48;;;;;;;11.07;8.93;;;16.00;99.90;;;;;;5089850;28;20047;-68
2022/08/10 02:50:31;;;;;;;12.52;9.35;;;16.00;99.90;;;;;;5059456;28;20047;-68
2022/08/10 02:53:21;;;;;;;16.35;9.60;;;16.00;99.90;;;;;;5091179;28;20300;-68
2022/08/10 02:56:05;;;;;;;10.18;9.15;;;15.90;99.90;;;;;;5079403;27;20070;-69
2022/08/10 02:58:38;;;;;;;15.05;9.77;;;15.90;99.90;;;;;;5092095;27;20179;-68
2022/08/10 03:01:07;;;;;;;;;;;15.80;99.90;;;;;;5094955;27;20054;-68
2022/08/10 03:03:41;;;;;;;15.68;11.02;;;15.80;99.90;;;;;;5093951;27;20275;-68
2022/08/10 03:06:11;;;;;;;15.68;10.13;;;15.90;99.90;;;;;;5094641;27;20763;-69
2022/08/10 03:08:42;;;;;;;18.00;12.32;;;15.80;99.90;;;;;;5077094;27;20114;-69
2022/08/10 03:11:16;;;;;;;15.25;11.90;;;15.80;99.90;;;;;;5093601;27;20447;-68
2022/08/10 03:13:44;;;;;;;15.50;13.00;;;15.90;99.90;;;;;;5094003;27;20045;-68
2022/08/10 03:16:11;;;;;;;18.42;13.75;;;15.80;99.90;;;;;;5063914;27;20047;-68
2022/08/10 03:18:38;;;;;;;17.45;12.80;;;15.90;99.90;;;;;;5094126;27;20049;-69
2022/08/10 03:21:05;;;;;;;17.85;12.18;;;15.80;99.90;;;;;;5076454;27;20039;-68
2022/08/10 03:23:31;;;;;;;15.55;12.05;;;15.90;99.90;;;;;;5093523;27;20486;-68
2022/08/10 03:25:59;;;;;;;19.50;12.05;;;15.70;99.90;;;;;;5094867;27;20511;-70
2022/08/10 03:28:27;;;;;;;17.90;12.32;;;15.80;99.90;;;;;;5094873;27;20516;-68
2022/08/10 03:30:55;;;;;;;17.40;12.80;;;15.80;99.90;;;;;;5079192;27;20122;-68
2022/08/10 03:33:22;;;;;;;13.60;11.38;;;15.70;99.90;;;;;;5078582;27;20051;-68
2022/08/10 03:35:49;;;;;;;15.73;12.60;;;15.70;99.90;;;;;;5096454;27;20069;-68
2022/08/10 03:38:14;;;;;;;18.80;13.55;;;15.80;99.90;;;;;;5095140;27;20043;-68
2022/08/10 03:40:42;;;;;;;19.25;13.90;;;15.80;99.90;;;;;;5093341;27;20046;-68
2022/08/10 03:43:12;;;;;;;20.02;14.55;;;15.80;99.90;;;;;;5093911;27;20050;-69
2022/08/10 03:45:39;;;;;;;18.58;14.73;;;15.80;99.90;;;;;;5093621;27;20361;-69
2022/08/10 03:48:07;;;;;;;20.35;14.70;;;15.70;99.90;;;;;;5093558;27;20368;-68
2022/08/10 03:50:35;;;;;;;23.77;16.02;;;15.70;99.90;;;;;;5064124;27;20039;-69
2022/08/10 03:53:01;;;;;;;20.20;15.85;;;15.90;99.90;;;;;;5093580;27;20261;-69
2022/08/10 03:55:27;;;;;;;22.50;16.00;;;15.90;99.90;;;;;;5076212;27;20035;-69
2022/08/10 03:57:53;;;;;;;27.67;18.45;;;15.80;99.90;;;;;;5093589;27;20356;-69
2022/08/10 04:00:18;;;;;;;28.10;19.25;;;15.90;99.90;;;;;;5075468;27;20103;-69
2022/08/10 04:02:45;;;;;;;25.73;18.80;;;15.90;99.90;;;;;;5093530;27;20205;-69
2022/08/10 04:05:16;;;;;;;25.83;19.50;;;15.80;99.90;;;;;;5091906;27;20096;-69
2022/08/10 04:07:45;;;;;;;22.30;17.98;;;15.90;99.90;;;;;;5076794;27;20035;-69
2022/08/10 04:10:13;;;;;;;24.85;19.33;;;15.70;99.90;;;;;;5093382;27;20043;-69
2022/08/10 04:12:39;;;;;;;24.65;18.65;;;15.80;99.90;;;;;;5076335;27;20115;-68
2022/08/10 04:15:05;;;;;;;28.98;18.08;;;15.80;99.90;;;;;;5066674;27;20050;-68
2022/08/10 04:17:30;;;;;;;23.45;18.63;;;15.80;99.90;;;;;;5092830;27;20066;-68
2022/08/10 04:19:58;;;;;;;26.30;18.85;;;15.90;99.90;;;;;;5092652;27;20552;-68
2022/08/10 04:22:26;;;;;;;30.50;20.98;;;15.90;99.90;;;;;;5065232;27;20114;-68
2022/08/10 04:25:01;;;;;;;27.58;18.67;;;16.00;99.90;;;;;;5092961;27;20039;-68
2022/08/10 04:27:27;;;;;;;26.70;19.13;;;16.00;99.90;;;;;;5090825;27;20051;-69
2022/08/10 04:29:54;;;;;;;22.48;18.10;;;16.00;99.90;;;;;;5091673;27;20096;-68
2022/08/10 04:32:21;;;;;;;26.27;19.27;;;15.90;99.90;;;;;;5075566;27;20065;-68
2022/08/10 04:34:49;;;;;;;24.88;18.67;;;16.10;99.90;;;;;;5110791;27;20081;-68
2022/08/10 04:37:19;;;;;;;25.55;19.02;;;16.10;99.90;;;;;;5093087;27;20574;-68
2022/08/10 04:39:45;;;;;;;24.55;18.23;;;16.20;99.90;;;;;;5092411;27;20046;-68
2022/08/10 04:42:10;;;;;;;24.98;17.73;;;16.20;99.90;;;;;;5109383;27;20544;-67
2022/08/10 04:44:36;;;;;;;21.85;16.13;;;16.20;99.90;;;;;;5091344;27;20023;-68
2022/08/10 04:47:02;;;;;;;25.17;15.93;;;16.20;99.90;;;;;;5074093;27;20245;-68
2022/08/10 04:49:28;;;;;;;22.58;14.88;;;16.20;99.90;;;;;;5091584;27;20043;-68
2022/08/10 04:51:53;;;;;;;23.15;14.95;;;16.30;99.90;;;;;;5091777;27;20039;-68
2022/08/10 04:54:19;;;;;;;20.98;15.40;;;16.30;99.90;;;;;;5074901;27;20111;-68
2022/08/10 04:56:45;;;;;;;22.25;15.93;;;16.40;99.90;;;;;;5089637;27;20430;-69
2022/08/10 04:59:11;;;;;;;20.02;15.80;;;16.30;99.90;;;;;;5090463;27;20093;-68
2022/08/10 05:01:38;;;;;;;19.40;15.50;;;16.50;99.90;;;;;;5066132;27;20042;-69
2022/08/10 05:04:04;;;;;;;16.17;14.50;;;16.50;99.90;;;;;;5074181;27;20094;-68
2022/08/10 05:06:31;;;;;;;20.13;14.40;;;16.60;99.90;;;;;;5092102;27;20047;-68
2022/08/10 05:08:57;;;;;;;19.42;13.00;;;16.60;99.90;;;;;;5092414;27;20984;-68
2022/08/10 05:11:22;;;;;;;19.17;13.93;;;16.80;99.90;;;;;;5091259;27;20208;-68
2022/08/10 05:13:48;;;;;;;16.42;12.40;;;16.70;99.90;;;;;;5090158;27;20641;-68
2022/08/10 05:16:14;;;;;;;17.15;11.65;;;16.80;99.90;;;;;;5073432;27;20120;-69
2022/08/10 05:18:39;;;;;;;15.23;10.90;;;17.00;99.90;;;;;;5090845;27;20046;-67
2022/08/10 05:21:05;;;;;;;12.57;10.18;;;17.00;99.90;;;;;;5065264;27;20547;-69
2022/08/10 05:23:31;;;;;;;14.35;9.65;;;17.10;99.90;;;;;;5073002;28;20108;-68
2022/08/10 05:25:56;;;;;;;13.35;9.73;;;17.00;99.90;;;;;;5075260;27;20428;-67
2022/08/10 05:28:22;;;;;;;12.10;9.32;;;17.00;99.90;;;;;;5109242;27;20409;-68
2022/08/10 05:30:47;;;;;;;10.93;7.82;;;17.20;99.90;;;;;;5091024;28;20031;-67
2022/08/10 05:33:13;;;;;;;12.43;7.63;;;17.30;99.90;;;;;;5090375;28;20039;-67
2022/08/10 05:35:39;;;;;;;10.38;7.55;;;17.20;99.90;;;;;;5091625;28;20039;-67
2022/08/10 05:38:07;;;;;;;11.95;7.13;;;17.40;99.90;;;;;;5091847;28;20568;-66
2022/08/10 05:40:36;;;;;;;7.95;6.82;;;17.60;99.90;;;;;;5090621;28;20065;-66
2022/08/10 05:43:02;;;;;;;10.90;6.70;;;17.80;99.90;;;;;;5091795;28;20535;-66
2022/08/10 05:45:28;;;;;;;8.65;6.20;;;18.00;99.90;;;;;;5090932;28;20039;-67
2022/08/10 05:47:54;;;;;;;7.60;5.88;;;18.10;99.90;;;;;;5072198;28;20296;-67
2022/08/10 05:50:25;;;;;;;8.30;5.72;;;18.10;99.90;;;;;;5066084;28;20039;-68
2022/08/10 05:52:53;;;;;;;7.80;5.25;;;18.30;99.90;;;;;;5092377;28;20035;-68
2022/08/10 05:55:19;;;;;;;8.98;5.05;;;18.40;99.90;;;;;;5074699;28;20047;-68
2022/08/10 05:57:46;;;;;;;7.90;4.78;;;18.50;99.90;;;;;;5091499;28;20046;-68
2022/08/10 06:00:17;;;;;;;7.05;4.88;;;18.70;99.90;;;;;;5092642;28;20085;-68
2022/08/10 06:02:49;;;;;;;7.72;4.95;;;18.90;99.90;;;;;;5093517;28;20560;-67
2022/08/10 06:05:35;;;;;;;7.45;4.70;;;18.90;99.90;;;;;;5075212;28;20651;-68
2022/08/10 06:08:19;;;;;;;7.20;4.22;;;19.30;99.90;;;;;;5111423;28;20062;-68
2022/08/10 06:10:45;;;;;;;6.88;3.60;;;19.50;99.90;;;;;;5076748;28;20339;-67
2022/08/10 06:15:59;;;;;;;5.68;3.58;;;19.70;99.90;;;;;;5092597;28;20043;-67
2022/08/10 06:18:26;;;;;;;4.00;3.20;;;19.70;99.90;;;;;;5093445;28;20055;-68
2022/08/10 06:20:51;;;;;;;6.57;3.15;;;19.70;99.90;;;;;;5093702;28;20076;-68
2022/08/10 06:23:17;;;;;;;5.65;3.28;;;19.90;99.90;;;;;;5093158;28;20058;-68
2022/08/10 06:25:43;;;;;;;3.40;2.63;;;19.90;99.90;;;;;;5111339;28;20435;-68
2022/08/10 06:28:14;;;;;;;7.30;2.83;;;20.10;99.90;;;;;;5077728;27;20035;-69
2022/08/10 06:30:40;;;;;;;5.32;2.70;;;20.20;99.90;;;;;;5096862;27;20077;-67
2022/08/10 06:33:08;;;;;;;5.05;2.40;;;20.30;99.90;;;;;;5097244;27;20054;-67
2022/08/10 06:35:35;;;;;;;2.65;1.60;;;20.40;99.90;;;;;;5096662;27;20054;-68
2022/08/10 06:38:03;;;;;;;5.30;2.30;;;20.30;99.90;;;;;;5096846;27;20851;-67
2022/08/10 06:40:36;;;;;;;4.00;1.75;;;20.40;99.90;;;;;;5095964;27;20161;-67
2022/08/10 06:43:06;;;;;;;4.05;1.80;;;20.60;99.90;;;;;;5095130;27;20127;-68
2022/08/10 06:45:44;;;;;;;5.85;2.10;;;20.60;99.90;;;;;;5096499;27;20081;-68
2022/08/10 06:48:28;;;;;;;4.32;2.28;;;20.80;99.90;;;;;;5098844;27;20038;-68
2022/08/10 06:51:00;;;;;;;4.40;2.28;;;20.90;99.90;;;;;;5098604;27;20469;-68
2022/08/10 06:53:38;;;;;;;4.73;2.33;;;20.90;99.90;;;;;;5098820;27;20276;-69
2022/08/10 06:56:10;;;;;;;4.00;3.00;;;21.10;99.90;;;;;;5116152;27;20047;-68
2022/08/10 06:58:44;;;;;;;2.60;2.20;;;21.10;99.90;;;;;;5098854;27;20249;-69
2022/08/10 07:01:14;;;;;;;2.92;2.15;;;21.10;99.90;;;;;;5081490;27;20460;-69
2022/08/10 07:04:03;;;;;;;3.50;2.30;;;21.10;99.90;;;;;;5065638;27;20047;-68
2022/08/10 07:06:29;;;;;;;4.20;2.40;;;21.30;99.90;;;;;;5097838;27;20096;-68
2022/08/10 07:08:56;;;;;;;5.00;2.45;;;21.30;99.90;;;;;;5080819;27;20046;-68
2022/08/10 07:11:22;;;;;;;3.65;2.42;;;21.40;99.90;;;;;;5098975;27;20460;-69
2022/08/10 07:13:49;;;;;;;5.63;2.95;;;21.40;99.90;;;;;;5097575;27;20068;-69
2022/08/10 07:16:17;;;;;;;2.72;2.22;;;21.70;99.90;;;;;;5097985;27;20047;-68
2022/08/10 07:18:46;;;;;;;4.93;2.50;;;21.90;99.90;;;;;;5096401;27;20047;-68
2022/08/10 07:21:13;;;;;;;3.90;2.03;;;22.00;99.90;;;;;;5098683;27;20047;-68
2022/08/10 07:23:42;;;;;;;2.75;2.10;;;22.10;99.90;;;;;;5094630;27;20062;-68
2022/08/10 07:26:12;;;;;;;2.75;1.63;;;22.20;99.90;;;;;;5093977;27;20096;-67
2022/08/10 07:28:41;;;;;;;2.03;1.38;;;22.40;99.90;;;;;;5057890;27;20740;-67
2022/08/10 07:31:10;;;;;;;2.15;1.15;;;22.60;99.90;;;;;;5109105;27;20035;-67
2022/08/10 07:33:38;;;;;;;1.65;1.10;;;22.60;99.90;;;;;;5111899;27;20043;-68
2022/08/10 07:36:04;;;;;;;2.50;1.00;;;22.80;99.90;;;;;;5079117;27;20511;-68
2022/08/10 07:38:34;;;;;;;1.58;0.70;;;22.80;99.90;;;;;;5061123;27;20046;-68
2022/08/10 07:41:01;;;;;;;2.08;0.80;;;23.00;99.90;;;;;;5092612;27;20047;-68
2022/08/10 07:43:34;;;;;;;2.00;0.80;;;23.20;99.90;;;;;;5075705;27;20625;-68
2022/08/10 07:46:03;;;;;;;2.90;0.80;;;23.30;99.90;;;;;;5076389;27;20939;-68
2022/08/10 07:48:32;;;;;;;1.88;0.50;;;23.60;99.90;;;;;;5093042;27;20038;-68
2022/08/10 07:51:01;;;;;;;4.22;1.02;;;23.60;99.90;;;;;;5092747;27;20092;-67
2022/08/10 07:53:32;;;;;;;3.42;0.90;;;23.60;99.90;;;;;;5093666;27;20494;-68
2022/08/10 07:56:01;;;;;;;2.80;0.60;;;23.70;99.90;;;;;;5091694;27;20058;-68
2022/08/10 07:58:37;;;;;;;3.17;0.80;;;23.80;99.90;;;;;;5093387;27;20563;-68
2022/08/10 08:01:02;;;;;;;1.90;0.43;;;23.90;99.90;;;;;;5069341;27;20043;-68
2022/08/10 08:03:31;;;;;;;2.30;0.60;;;24.00;99.90;;;;;;5112247;27;20043;-68
2022/08/10 08:05:59;;;;;;;1.67;0.50;;;24.00;99.90;;;;;;5092929;27;20047;-69
2022/08/10 08:08:26;;;;;;;3.95;0.45;;;24.20;99.90;;;;;;5077819;27;20046;-68
2022/08/10 08:10:53;;;;;;;2.00;0.60;;;24.40;99.90;;;;;;5093513;27;20456;-69
2022/08/10 08:13:21;;;;;;;2.75;0.60;;;24.60;99.90;;;;;;5076409;27;20401;-69
2022/08/10 08:15:50;;;;;;;2.97;0.43;;;24.60;99.90;;;;;;5092729;27;20516;-69
2022/08/10 08:18:17;;;;;;;4.95;0.50;;;24.80;99.90;;;;;;5093043;27;20055;-69
2022/08/10 08:20:44;;;;;;;3.80;0.60;;;24.90;99.90;;;;;;5091389;27;20412;-69
2022/08/10 08:23:12;;;;;;;3.10;0.70;;;24.90;99.90;;;;;;5073496;27;20293;-69
2022/08/10 08:25:39;;;;;;;2.70;0.50;;;25.20;99.90;;;;;;5091982;27;20047;-69
2022/08/10 08:28:08;;;;;;;4.47;0.95;;;25.20;99.90;;;;;;5093630;27;20042;-68
2022/08/10 08:30:34;;;;;;;1.48;0.45;;;25.40;99.90;;;;;;5095229;27;20047;-67
2022/08/10 08:33:00;;;;;;;2.53;0.32;;;25.70;99.90;;;;;;5076066;27;20486;-68
2022/08/10 08:35:27;;;;;;;2.08;0.30;;;25.70;99.90;;;;;;5076996;27;20079;-67
2022/08/10 08:37:53;;;;;;;3.53;0.30;;;25.70;99.90;;;;;;5094885;27;20303;-68
2022/08/10 08:40:26;;;;;;;1.85;0.28;;;25.90;99.90;;;;;;5077742;27;20054;-68
2022/08/10 08:43:15;;;;;;;1.58;0.30;;;26.00;99.90;;;;;;5093754;27;20548;-68
2022/08/10 08:45:59;;;;;;;1.48;0.20;;;26.20;99.90;;;;;;5094649;27;20078;-69
2022/08/10 08:48:43;;;;;;;2.03;0.32;;;26.00;99.90;;;;;;5077954;27;20035;-68
2022/08/10 08:51:31;;;;;;;1.15;0.28;;;26.30;99.90;;;;;;5076698;27;20080;-69
2022/08/10 08:54:14;;;;;;;2.80;0.47;;;26.50;99.90;;;;;;5077978;27;20039;-69
2022/08/10 08:56:48;;;;;;;4.60;0.30;;;26.60;99.90;;;;;;5094680;27;20361;-69
2022/08/10 08:59:33;;;;;;;2.17;0.30;;;26.60;99.90;;;;;;5094524;27;20601;-69
2022/08/10 09:02:33;;;;;;;3.38;0.47;;;26.80;99.90;;;;;;5095473;27;20089;-69
2022/08/10 09:05:23;;;;;;;0.82;0.30;;;26.40;99.90;;;;;;5095957;27;20051;-67
2022/08/10 09:08:34;;;;;;;4.50;0.30;;;26.50;99.90;;;;;;5113395;27;20239;-69
2022/08/10 09:11:21;;;;;;;2.20;0.30;;;26.40;99.90;;;;;;5062665;27;20083;-69
2022/08/10 09:14:39;;;;;;;2.20;0.40;;;26.30;99.90;;;;;;5092304;27;20342;-69
2022/08/10 09:17:24;;;;;;;2.63;0.30;;;26.30;99.90;;;;;;5087309;27;20187;-69
2022/08/10 09:20:01;;;;;;;2.53;0.35;;;26.40;99.90;;;;;;5092458;27;20035;-69
2022/08/10 09:22:48;;;;;;;1.50;0.40;;;26.50;99.90;;;;;;5092406;27;20192;-69
2022/08/10 09:25:13;;;;;;;3.83;0.50;;;26.50;99.90;;;;;;5075638;28;20050;-69
2022/08/10 09:27:47;;;;;;;1.38;0.30;;;26.50;99.90;;;;;;5092202;27;20039;-68
2022/08/10 09:30:24;;;;;;;2.10;0.25;;;26.70;99.90;;;;;;5097391;27;20036;-68
2022/08/10 09:32:56;;;;;;;1.83;0.40;;;26.50;99.90;;;;;;5099082;27;20829;-68
2022/08/10 09:35:45;;;;;;;;;;;26.50;99.90;;;;;;5085443;28;20148;-69
2022/08/10 09:38:23;;;;;;;3.22;0.20;;;26.40;99.90;;;;;;5086700;28;20083;-68
2022/08/10 09:40:57;;;;;;;1.10;0.30;;;26.50;99.90;;;;;;5092298;28;20120;-69
2022/08/10 09:44:04;;;;;;;1.58;0.20;;;26.50;99.90;;;;;;5093125;28;20047;-69
2022/08/10 09:47:09;;;;;;;3.03;0.30;;;26.50;99.90;;;;;;5099939;28;20499;-69
2022/08/10 09:49:58;;;;;;;2.80;0.40;;;26.40;99.90;;;;;;5074374;28;20043;-69
2022/08/10 09:52:39;;;;;;;1.25;0.20;;;26.70;99.90;;;;;;5092370;28;20046;-69
2022/08/10 09:55:17;;;;;;;2.63;0.30;;;26.90;99.90;;;;;;5093979;28;20043;-69
2022/08/10 09:58:13;;;;;;;3.30;0.30;;;27.10;99.90;;;;;;5092799;28;20042;-69
2022/08/10 10:00:44;;;;;;;4.45;0.30;;;27.20;99.90;;;;;;5097007;28;20051;-68
2022/08/10 10:03:24;;;;;;;3.38;0.30;;;27.30;99.90;;;;;;5099844;27;20382;-68
2022/08/10 10:06:17;;;;;;;2.17;0.30;;;27.80;99.90;;;;;;5103391;27;20043;-68
2022/08/10 10:09:02;;;;;;;2.70;0.30;;;28.20;99.90;;;;;;5098562;27;20065;-67
2022/08/10 10:11:42;;;;;;;4.82;0.25;;;28.20;99.90;;;;;;5096986;27;20035;-68
2022/08/10 10:14:34;;;;;;;2.03;0.28;;;28.00;99.90;;;;;;5099389;27;20130;-68
2022/08/10 10:17:16;;;;;;;3.42;0.38;;;28.20;99.90;;;;;;5072285;27;20042;-68
2022/08/10 10:19:52;;;;;;;2.63;0.35;;;28.20;99.20;;;;;;5119197;27;20554;-69
2022/08/10 10:22:40;;;;;;;1.65;0.20;;;28.30;98.50;;;;;;5091888;27;20051;-68
2022/08/10 10:25:38;;;;;;;1.52;0.20;;;28.40;97.90;;;;;;5101865;27;20046;-67
2022/08/10 10:28:28;;;;;;;4.50;0.20;;;28.60;97.50;;;;;;5105217;27;20184;-70
2022/08/10 10:31:03;;;;;;;2.17;0.60;;;28.70;97.10;;;;;;5105776;27;20043;-67
2022/08/10 10:33:45;;;;;;;2.42;0.40;;;28.70;98.10;;;;;;5086147;27;20378;-68
2022/08/10 10:36:13;;;;;;;4.37;0.40;;;28.70;96.70;;;;;;5069472;27;20043;-68
2022/08/10 10:38:41;;;;;;;1.40;0.30;;;28.90;95.00;;;;;;5103085;27;20043;-69
2022/08/10 10:41:28;;;;;;;3.75;0.30;;;29.00;94.00;;;;;;5086365;27;20050;-70
2022/08/10 10:44:20;;;;;;;3.38;0.30;;;28.90;95.00;;;;;;5102885;27;20043;-68
2022/08/10 10:46:57;;;;;;;3.97;0.40;;;29.00;96.20;;;;;;5103533;27;20046;-68
2022/08/10 10:49:48;;;;;;;3.05;0.68;;;29.10;97.40;;;;;;5103402;27;20401;-69
2022/08/10 10:52:27;;;;;;;2.03;0.30;;;29.10;98.40;;;;;;5103208;27;20446;-69
2022/08/10 10:55:14;;;;;;;3.42;0.30;;;29.00;99.80;;;;;;5102952;27;20061;-69
2022/08/10 10:57:45;;;;;;;1.98;0.32;;;29.10;99.90;;;;;;5104173;27;20046;-69
2022/08/10 11:00:12;;;;;;;3.78;0.50;;;29.00;99.90;;;;;;5070881;27;20051;-68
2022/08/10 11:03:09;;;;;;;2.00;0.35;;;28.70;99.90;;;;;;5103600;27;20055;-68
2022/08/10 11:05:54;;;;;;;1.77;0.30;;;28.70;99.90;;;;;;5084024;27;20043;-68
2022/08/10 11:08:24;;;;;;;2.53;0.40;;;28.50;99.90;;;;;;5104260;27;20373;-69
2022/08/10 11:10:59;;;;;;;2.85;0.45;;;28.60;99.90;;;;;;5105518;27;20511;-68
2022/08/10 11:13:39;;;;;;;2.28;0.30;;;28.50;99.90;;;;;;5071064;28;20111;-68
2022/08/10 11:16:34;;;;;;;3.03;0.30;;;28.60;99.90;;;;;;5104079;27;20061;-69
2022/08/10 11:19:15;;;;;;;2.92;0.40;;;28.50;99.90;;;;;;5104265;27;20051;-68
2022/08/10 11:22:05;;;;;;;4.05;0.50;;;28.30;99.90;;;;;;5122982;27;20039;-68
2022/08/10 11:24:55;;;;;;;3.55;0.40;;;28.30;99.90;;;;;;5102942;27;20289;-69
2022/08/10 11:28:11;;;;;;;3.83;0.50;;;28.30;99.90;;;;;;5100722;27;20031;-69
2022/08/10 11:31:08;;;;;;;4.03;0.47;;;28.30;99.90;;;;;;5030490;28;20392;-68
2022/08/10 11:33:49;;;;;;;2.58;0.50;;;28.40;99.90;;;;;;4998213;28;20584;-68
2022/08/10 11:36:24;;;;;;;3.90;0.50;;;28.50;99.90;;;;;;5069959;27;20809;-69
2022/08/10 11:39:33;;;;;;;2.92;0.50;;;28.40;99.90;;;;;;5096268;27;20542;-68
2022/08/10 11:42:14;;;;;;;3.10;0.60;;;28.10;99.90;;;;;;5072834;27;20066;-69
2022/08/10 11:45:06;;;;;;;4.00;0.50;;;27.80;99.90;;;;;;5079246;27;20039;-68
2022/08/10 11:48:01;;;;;;;6.68;0.65;;;27.90;99.90;;;;;;5071253;27;20120;-68
2022/08/10 11:50:51;;;;;;;5.75;0.60;;;28.00;99.90;;;;;;5080323;27;20530;-69
2022/08/10 11:53:25;;;;;;;3.47;0.77;;;28.10;99.90;;;;;;5114010;27;20085;-68
2022/08/10 11:55:55;;;;;;;2.22;0.50;;;28.20;99.90;;;;;;5095708;27;20690;-67
2022/08/10 12:01:12;;;;;;;2.45;0.55;;;28.30;99.90;;;;;;5095239;27;20069;-67
2022/08/10 12:03:40;;;;;;;2.55;0.57;;;28.60;99.90;;;;;;5077303;27;20047;-67
2022/08/10 12:06:12;;;;;;;5.68;0.70;;;28.60;99.90;;;;;;5095728;27;20031;-68
2022/08/10 12:08:41;;;;;;;6.40;1.10;;;28.80;99.90;;;;;;5095658;27;20035;-68
2022/08/10 12:11:09;;;;;;;5.30;0.70;;;29.00;99.90;;;;;;5095601;27;20439;-68
2022/08/10 12:13:40;;;;;;;3.42;0.45;;;28.90;99.90;;;;;;5095253;27;20062;-68
2022/08/10 12:16:14;;;;;;;9.70;1.20;;;29.10;99.90;;;;;;5095668;27;20047;-68
2022/08/10 12:18:45;;;;;;;11.40;1.30;;;29.30;99.90;;;;;;5095359;27;20051;-68
2022/08/10 12:21:42;;;;;;;5.85;1.00;;;28.90;99.90;;;;;;5095367;27;20047;-68
2022/08/10 12:24:14;;;;;;;4.80;0.90;;;28.90;99.90;;;;;;5081192;27;20460;-68
2022/08/10 12:27:09;;;;;;;6.45;0.75;;;28.50;99.90;;;;;;5084905;27;20704;-68
2022/08/10 12:30:13;;;;;;;4.75;0.60;;;28.60;99.90;;;;;;5102948;27;20480;-68
2022/08/10 12:33:00;;;;;;;4.38;0.80;;;29.00;99.90;;;;;;5102455;27;20481;-69
2022/08/10 12:35:49;;;;;;;4.07;0.55;;;28.80;99.90;;;;;;5068970;27;20100;-69
2022/08/10 12:38:40;;;;;;;3.83;0.60;;;28.80;99.90;;;;;;5102121;27;20504;-70
2022/08/10 12:41:22;;;;;;;4.30;0.52;;;28.80;99.90;;;;;;5083852;27;20037;-69
2022/08/10 12:43:54;;;;;;;3.17;0.70;;;29.10;99.90;;;;;;5100616;27;20043;-69
2022/08/10 12:46:53;;;;;;;3.78;0.60;;;29.10;99.90;;;;;;5100776;27;20046;-69
2022/08/10 12:49:36;;;;;;;3.25;0.80;;;29.30;99.90;;;;;;5100326;27;20034;-69
2022/08/10 12:52:18;;;;;;;3.72;0.60;;;29.50;99.90;;;;;;5100179;27;20076;-69
2022/08/10 12:54:45;;;;;;;1.73;0.60;;;29.60;99.90;;;;;;5118977;27;20047;-69
2022/08/10 12:57:14;;;;;;;2.70;0.43;;;29.60;99.90;;;;;;5117280;27;20504;-69
2022/08/10 12:59:47;;;;;;;2.72;0.50;;;29.50;99.90;;;;;;5118550;27;20336;-70
2022/08/10 13:02:20;;;;;;;2.75;0.40;;;29.90;99.90;;;;;;5083650;27;20057;-69
2022/08/10 13:04:50;;;;;;;1.60;0.50;;;30.20;99.90;;;;;;5083904;27;20051;-69
2022/08/10 13:07:46;;;;;;;1.42;0.35;;;30.50;99.60;;;;;;5083992;27;20039;-68
2022/08/10 13:10:15;;;;;;;3.85;0.40;;;30.40;99.30;;;;;;5083380;27;20146;-69
2022/08/10 13:12:45;;;;;;;1.30;0.57;;;30.70;97.40;;;;;;5100615;27;20255;-69
2022/08/10 13:15:20;;;;;;;1.40;0.40;;;30.70;96.30;;;;;;5083004;27;20396;-69
2022/08/10 13:17:48;;;;;;;3.05;0.63;;;30.20;97.20;;;;;;5082427;27;20285;-69
2022/08/10 13:20:19;;;;;;;1.48;0.47;;;30.60;97.20;;;;;;5082270;27;20045;-70
2022/08/10 13:22:48;;;;;;;3.45;0.52;;;30.70;96.90;;;;;;5082266;27;20546;-68
2022/08/10 13:25:18;;;;;;;1.88;0.40;;;30.40;97.80;;;;;;5083074;27;20082;-68